Albion, Illinois
Current Conditions -  °F | °C
As of 2:15 AM on Thursday 29 Jan 2015 (Local Time) from KFWC Reporting Station
Clear Clear  
Wind Chill: 39°   Ceiling: Unl
Heat Index: 44°   Visibility: 10mi
Dew Point: 35°   Wind: 12mph
Humidity: 69%   Direction: 180°S
Pressure: 29.85"   Gusts: NA
Location:  38.38°N, 88.06°W
Report Text: KFWC 290815Z AUTO 18010KT 10SM CLR 07/02 A2985 RMK AO1 T00690016
Loading
Personal Weather Stations






























Interactive Weather Map New forecast layout! Learn more

10-Day Weather Forecast

Advertisements
Track Severe Weather on mobile